Time,TemperatureF,DewpointF,PressureIn,WindDirection,WindDirectionDegrees,WindSpeedMPH,WindSpeedGustMPH,Humidity,HourlyPrecipIn,Conditions,Clouds,dailyrainin,SoftwareType,DateUTC
2013-01-31 00:01:00,33.9,27.0,30.11,SE,145,0.0,1.0,76,0.00,,,0.00,weatherlink.com 1.10,2013-01-31 07:01:00,
2013-01-31 00:16:00,33.7,28.0,30.12,SE,145,0.0,1.0,78,0.00,,,0.00,weatherlink.com 1.10,2013-01-31 07:16:00,
2013-01-31 00:31:00,33.9,27.0,30.12,SE,146,1.0,1.0,77,0.00,,,0.00,weatherlink.com 1.10,2013-01-31 07:31:00,
2013-01-31 00:46:00,33.9,27.0,30.12,SE,124,0.0,1.0,76,0.00,,,0.00,weatherlink.com 1.10,2013-01-31 07:46:00,
2013-01-31 01:01:00,34.3,26.0,30.12,SE,144,0.0,1.0,73,0.00,,,0.00,weatherlink.com 1.10,2013-01-31 08:01:00,
2013-01-31 01:16:00,35.1,26.0,30.12,SE,136,1.0,2.0,70,0.00,,,0.00,weatherlink.com 1.10,2013-01-31 08:16:00,
2013-01-31 01:31:00,35.1,26.0,30.12,SE,138,1.0,1.0,70,0.00,,,0.00,weatherlink.com 1.10,2013-01-31 08:31:00,
2013-01-31 01:46:00,35.0,26.0,30.13,SE,141,0.0,1.0,70,0.00,,,0.00,weatherlink.com 1.10,2013-01-31 08:46:00,
2013-01-31 02:02:00,35.3,26.0,30.13,SE,145,1.0,2.0,68,0.00,,,0.00,weatherlink.com 1.10,2013-01-31 09:02:00,
2013-01-31 02:16:00,35.7,26.0,30.13,SSE,148,1.0,2.0,67,0.00,,,0.00,weatherlink.com 1.10,2013-01-31 09:16:00,
2013-01-31 02:31:00,36.0,26.0,30.13,SE,133,0.0,3.0,66,0.00,,,0.00,weatherlink.com 1.10,2013-01-31 09:31:00,
2013-01-31 02:46:00,35.9,25.0,30.13,SE,145,1.0,2.0,66,0.00,,,0.00,weatherlink.com 1.10,2013-01-31 09:46:00,
2013-01-31 03:01:00,36.0,26.0,30.14,South,187,4.0,4.0,66,0.00,,,0.00,weatherlink.com 1.10,2013-01-31 10:01:00,
2013-01-31 03:16:00,35.9,25.0,30.13,SSE,147,1.0,4.0,66,0.00,,,0.00,weatherlink.com 1.10,2013-01-31 10:16:00,
2013-01-31 03:31:00,35.8,25.0,30.13,SSE,166,0.0,2.0,66,0.00,,,0.00,weatherlink.com 1.10,2013-01-31 10:31:00,
2013-01-31 03:46:00,35.9,25.0,30.13,SSE,153,2.0,3.0,66,0.00,,,0.00,weatherlink.com 1.10,2013-01-31 10:46:00,
2013-01-31 04:01:00,36.1,26.0,30.13,SE,146,1.0,2.0,67,0.00,,,0.00,weatherlink.com 1.10,2013-01-31 11:01:00,
2013-01-31 04:16:00,36.4,26.0,30.13,SE,141,1.0,3.0,66,0.00,,,0.00,weatherlink.com 1.10,2013-01-31 11:16:00,
2013-01-31 04:31:00,36.5,26.0,30.13,SSE,147,1.0,-999.0,65,-99.99,,,0.00,weatherlink.com 1.10,2013-01-31 11:31:00,
2013-01-31 04:46:00,36.3,25.0,30.13,SE,141,1.0,2.0,65,0.00,,,0.00,weatherlink.com 1.10,2013-01-31 11:46:00,
2013-01-31 05:01:00,36.0,25.0,30.12,SE,134,2.0,5.0,65,0.00,,,0.00,weatherlink.com 1.10,2013-01-31 12:01:00,
2013-01-31 05:16:00,36.0,25.0,30.12,SE,131,1.0,3.0,65,0.00,,,0.00,weatherlink.com 1.10,2013-01-31 12:16:00,
2013-01-31 05:31:00,35.9,25.0,30.13,ESE,120,1.0,2.0,64,0.00,,,0.00,weatherlink.com 1.10,2013-01-31 12:31:00,
2013-01-31 05:46:00,35.7,25.0,30.13,ESE,115,2.0,3.0,64,0.00,,,0.00,weatherlink.com 1.10,2013-01-31 12:46:00,
2013-01-31 06:01:00,35.7,25.0,30.14,ESE,120,1.0,2.0,64,0.00,,,0.00,weatherlink.com 1.10,2013-01-31 13:01:00,
2013-01-31 06:16:00,35.5,25.0,30.14,ESE,105,2.0,3.0,65,0.00,,,0.00,weatherlink.com 1.10,2013-01-31 13:16:00,
2013-01-31 06:32:00,35.0,25.0,30.15,ESE,105,3.0,3.0,67,0.00,,,0.00,weatherlink.com 1.10,2013-01-31 13:32:00,
2013-01-31 06:47:00,36.0,26.0,30.16,ESE,123,3.0,4.0,66,0.00,,,0.00,weatherlink.com 1.10,2013-01-31 13:47:00,
2013-01-31 07:02:00,37.5,27.0,30.17,SE,131,3.0,4.0,65,0.00,,,0.00,weatherlink.com 1.10,2013-01-31 14:02:00,
2013-01-31 07:17:00,39.0,27.0,30.18,SSE,155,2.0,3.0,63,0.00,,,0.00,weatherlink.com 1.10,2013-01-31 14:17:00,
2013-01-31 07:32:00,40.8,28.0,30.18,SSE,158,2.0,4.0,60,0.00,,,0.00,weatherlink.com 1.10,2013-01-31 14:32:00,
2013-01-31 07:47:00,43.7,29.0,30.18,SSE,152,2.0,5.0,57,0.00,,,0.00,weatherlink.com 1.10,2013-01-31 14:47:00,
2013-01-31 08:02:00,45.9,29.0,30.18,ESE,121,4.0,5.0,52,0.00,,,0.00,weatherlink.com 1.10,2013-01-31 15:02:00,
2013-01-31 08:17:00,46.7,29.0,30.19,SE,146,3.0,7.0,50,0.00,,,0.00,weatherlink.com 1.10,2013-01-31 15:17:00,
2013-01-31 08:32:00,47.0,29.0,30.19,SSW,211,6.0,8.0,49,0.00,,,0.00,weatherlink.com 1.10,2013-01-31 15:32:00,
2013-01-31 08:47:00,47.9,29.0,30.19,SW,221,4.0,8.0,49,0.00,,,0.00,weatherlink.com 1.10,2013-01-31 15:47:00,
2013-01-31 09:02:00,48.0,29.0,30.19,South,186,6.0,8.0,49,0.00,,,0.00,weatherlink.com 1.10,2013-01-31 16:02:00,
2013-01-31 09:17:00,49.4,30.0,30.19,SSW,210,1.0,8.0,48,0.00,,,0.00,weatherlink.com 1.10,2013-01-31 16:17:00,
2013-01-31 09:32:00,51.6,30.0,30.19,SSW,195,7.0,8.0,44,0.00,,,0.00,weatherlink.com 1.10,2013-01-31 16:32:00,
2013-01-31 09:47:00,53.5,30.0,30.20,South,191,3.0,8.0,41,0.00,,,0.00,weatherlink.com 1.10,2013-01-31 16:47:00,
2013-01-31 10:02:00,54.9,31.0,30.19,SSW,212,7.0,8.0,40,0.00,,,0.00,weatherlink.com 1.10,2013-01-31 17:02:00,
2013-01-31 10:17:00,56.3,30.0,30.18,SSW,192,5.0,8.0,37,0.00,,,0.00,weatherlink.com 1.10,2013-01-31 17:17:00,
2013-01-31 10:32:00,57.9,31.0,30.18,SSW,203,4.0,9.0,36,0.00,,,0.00,weatherlink.com 1.10,2013-01-31 17:32:00,
2013-01-31 10:48:00,59.1,31.0,30.18,SSW,193,2.0,8.0,34,0.00,,,0.00,weatherlink.com 1.10,2013-01-31 17:48:00,
2013-01-31 11:03:00,60.2,32.0,30.17,SE,135,3.0,8.0,35,0.00,,,0.00,weatherlink.com 1.10,2013-01-31 18:03:00,
2013-01-31 11:18:00,60.8,30.0,30.17,SSW,195,5.0,9.0,31,0.00,,,0.00,weatherlink.com 1.10,2013-01-31 18:18:00,
2013-01-31 11:33:00,61.6,33.0,30.16,South,172,3.0,10.0,34,0.00,,,0.00,weatherlink.com 1.10,2013-01-31 18:33:00,
2013-01-31 11:48:00,62.2,31.0,30.16,SW,214,6.0,10.0,31,0.00,,,0.00,weatherlink.com 1.10,2013-01-31 18:48:00,
2013-01-31 12:03:00,62.5,26.0,30.15,SSW,208,6.0,12.0,25,0.00,,,0.00,weatherlink.com 1.10,2013-01-31 19:03:00,
2013-01-31 12:18:00,62.6,23.0,30.13,SW,225,11.0,14.0,22,0.00,,,0.00,weatherlink.com 1.10,2013-01-31 19:18:00,
2013-01-31 12:33:00,63.9,24.0,30.12,SSE,160,8.0,11.0,22,0.00,,,0.00,weatherlink.com 1.10,2013-01-31 19:33:00,
2013-01-31 12:48:00,64.1,28.0,30.11,SSE,160,6.0,13.0,26,0.00,,,0.00,weatherlink.com 1.10,2013-01-31 19:48:00,
2013-01-31 13:03:00,64.3,27.0,30.10,SSW,198,11.0,13.0,24,0.00,,,0.00,weatherlink.com 1.10,2013-01-31 20:03:00,
2013-01-31 13:18:00,64.7,29.0,30.10,SSE,165,5.0,12.0,26,0.00,,,0.00,weatherlink.com 1.10,2013-01-31 20:18:00,
2013-01-31 13:33:00,64.8,27.0,30.09,SE,128,6.0,15.0,24,0.00,,,0.00,weatherlink.com 1.10,2013-01-31 20:33:00,
2013-01-31 13:48:00,65.4,25.0,30.10,SSE,150,6.0,14.0,22,0.00,,,0.00,weatherlink.com 1.10,2013-01-31 20:48:00,
2013-01-31 14:03:00,65.0,25.0,30.09,South,169,5.0,15.0,22,0.00,,,0.00,weatherlink.com 1.10,2013-01-31 21:03:00,
2013-01-31 14:18:00,65.5,24.0,30.10,SSW,202,9.0,13.0,21,0.00,,,0.00,weatherlink.com 1.10,2013-01-31 21:18:00,
2013-01-31 14:33:00,66.0,24.0,30.09,SW,222,11.0,15.0,20,0.00,,,0.00,weatherlink.com 1.10,2013-01-31 21:33:00,
2013-01-31 14:48:00,65.8,24.0,30.09,South,177,5.0,17.0,20,0.00,,,0.00,weatherlink.com 1.10,2013-01-31 21:48:00,
2013-01-31 15:03:00,65.9,24.0,30.09,SSW,212,6.0,17.0,20,0.00,,,0.00,weatherlink.com 1.10,2013-01-31 22:03:00,
2013-01-31 15:18:00,65.8,28.0,30.08,South,186,5.0,10.0,24,0.00,,,0.00,weatherlink.com 1.10,2013-01-31 22:18:00,
2013-01-31 15:33:00,65.8,25.0,30.08,SE,146,6.0,10.0,21,0.00,,,0.00,weatherlink.com 1.10,2013-01-31 22:33:00,
2013-01-31 15:48:00,65.0,25.0,30.08,SSW,194,4.0,10.0,22,0.00,,,0.00,weatherlink.com 1.10,2013-01-31 22:48:00,
2013-01-31 16:03:00,64.0,25.0,30.08,SW,214,3.0,8.0,23,0.00,,,0.00,weatherlink.com 1.10,2013-01-31 23:03:00,
2013-01-31 16:18:00,63.8,27.0,30.09,SE,137,2.0,8.0,25,0.00,,,0.00,weatherlink.com 1.10,2013-01-31 23:18:00,
2013-01-31 16:33:00,62.7,27.0,30.10,SSW,197,1.0,6.0,26,0.00,,,0.00,weatherlink.com 1.10,2013-01-31 23:33:00,
2013-01-31 16:48:00,61.2,28.0,30.11,SSE,148,1.0,5.0,28,0.00,,,0.00,weatherlink.com 1.10,2013-01-31 23:48:00,
2013-01-31 17:03:00,59.4,29.0,30.12,SSE,147,1.0,2.0,31,0.00,,,0.00,weatherlink.com 1.10,2013-02-01 00:03:00,
2013-01-31 17:18:00,58.5,29.0,30.12,SSE,149,1.0,3.0,32,0.00,,,0.00,weatherlink.com 1.10,2013-02-01 00:18:00,
2013-01-31 17:33:00,58.1,27.0,30.13,SE,131,1.0,3.0,31,0.00,,,0.00,weatherlink.com 1.10,2013-02-01 00:33:00,
2013-01-31 17:48:00,58.0,28.0,30.13,SE,133,2.0,5.0,32,0.00,,,0.00,weatherlink.com 1.10,2013-02-01 00:48:00,
2013-01-31 18:03:00,57.4,28.0,30.14,SE,125,2.0,5.0,33,0.00,,,0.00,weatherlink.com 1.10,2013-02-01 01:03:00,
2013-01-31 18:18:00,56.6,28.0,30.14,SE,137,1.0,3.0,34,0.00,,,0.00,weatherlink.com 1.10,2013-02-01 01:18:00,
2013-01-31 18:48:00,55.4,28.0,30.15,ESE,103,1.0,2.0,35,0.00,,,0.00,weatherlink.com 1.10,2013-02-01 01:48:00,
2013-01-31 19:03:00,55.1,28.0,30.16,SE,124,2.0,3.0,36,0.00,,,0.00,weatherlink.com 1.10,2013-02-01 02:03:00,
2013-01-31 19:18:00,54.6,29.0,30.17,SE,132,1.0,2.0,37,0.00,,,0.00,weatherlink.com 1.10,2013-02-01 02:18:00,
2013-01-31 19:33:00,53.9,29.0,30.18,SE,134,1.0,2.0,38,0.00,,,0.00,weatherlink.com 1.10,2013-02-01 02:33:00,
2013-01-31 19:48:00,53.6,29.0,30.19,SSW,193,0.0,2.0,39,0.00,,,0.00,weatherlink.com 1.10,2013-02-01 02:48:00,
2013-01-31 20:03:00,53.0,28.0,30.19,SSW,201,0.0,1.0,39,0.00,,,0.00,weatherlink.com 1.10,2013-02-01 03:03:00,
2013-01-31 20:18:00,53.3,31.0,30.20,WNW,297,2.0,2.0,43,0.00,,,0.00,weatherlink.com 1.10,2013-02-01 03:18:00,
2013-01-31 20:33:00,52.9,35.0,30.22,WNW,284,0.0,5.0,50,0.00,,,0.00,weatherlink.com 1.10,2013-02-01 03:33:00,
2013-01-31 20:49:00,52.3,33.0,30.23,NW,319,10.0,13.0,48,0.00,,,0.00,weatherlink.com 1.10,2013-02-01 03:49:00,
2013-01-31 21:04:00,49.6,32.0,30.24,NNW,331,2.0,24.0,51,0.00,,,0.00,weatherlink.com 1.10,2013-02-01 04:04:00,
2013-01-31 21:19:00,47.9,32.0,30.25,North,350,0.0,19.0,55,0.00,,,0.00,weatherlink.com 1.10,2013-02-01 04:19:00,
2013-01-31 21:34:00,46.9,32.0,30.25,North,354,1.0,19.0,56,0.00,,,0.00,weatherlink.com 1.10,2013-02-01 04:34:00,
2013-01-31 21:49:00,45.9,31.0,30.27,NNE,18,9.0,19.0,57,0.00,,,0.00,weatherlink.com 1.10,2013-02-01 04:49:00,
2013-01-31 22:04:00,45.2,31.0,30.27,NW,319,10.0,14.0,58,0.00,,,0.00,weatherlink.com 1.10,2013-02-01 05:04:00,
2013-01-31 22:19:00,44.5,31.0,30.27,NNW,328,7.0,19.0,60,0.00,,,0.00,weatherlink.com 1.10,2013-02-01 05:19:00,
2013-01-31 22:34:00,43.9,31.0,30.27,NNE,12,3.0,20.0,61,0.00,,,0.00,weatherlink.com 1.10,2013-02-01 05:34:00,
2013-01-31 22:49:00,43.5,31.0,30.28,NNW,345,10.0,22.0,61,0.00,,,0.00,weatherlink.com 1.10,2013-02-01 05:49:00,
2013-01-31 23:04:00,42.6,31.0,30.28,North,356,4.0,16.0,64,0.00,,,0.00,weatherlink.com 1.10,2013-02-01 06:04:00,
2013-01-31 23:19:00,41.9,30.0,30.28,NNW,338,7.0,20.0,64,0.00,,,0.00,weatherlink.com 1.10,2013-02-01 06:19:00,
2013-01-31 23:34:00,41.2,30.0,30.29,NNE,32,4.0,14.0,65,0.00,,,0.00,weatherlink.com 1.10,2013-02-01 06:34:00,
2013-01-31 23:49:00,40.7,29.0,30.29,NNW,347,0.0,17.0,64,0.00,,,0.00,weatherlink.com 1.10,2013-02-01 06:49:00,